Time;durP1;ratioP1;P1;durP2;ratioP2;P2;SDS_P1;SDS_P2;PMS_P1;PMS_P2;Temp;Humidity;BMP_temperature;BMP_pressure;BME280_temperature;BME280_humidity;BME280_pressure;Samples;Min_cycle;Max_cycle;Signal;HPM_P1;HPM_P2
2024/03/10 00:01:20;;;;;;;64.60;29.30;;;;;;;6.49;100.00;98996.72;5040827;28;20462;-75
2024/03/10 00:03:46;;;;;;;74.60;39.33;;;;;;;6.50;100.00;98998.34;5041138;28;20036;-74
2024/03/10 00:06:12;;;;;;;60.35;23.80;;;;;;;6.50;100.00;99001.84;5057750;28;20028;-74
2024/03/10 00:08:40;;;;;;;66.70;28.98;;;;;;;6.48;100.00;98998.53;5041106;28;20032;-74
2024/03/10 00:11:06;;;;;;;65.95;37.35;;;;;;;6.50;100.00;98991.16;5057622;28;20036;-75
2024/03/10 00:13:31;;;;;;;64.00;31.17;;;;;;;6.53;100.00;98993.44;5057363;28;20039;-73
2024/03/10 00:15:58;;;;;;;67.60;34.53;;;;;;;6.54;100.00;98989.78;5057540;28;20413;-74
2024/03/10 00:18:24;;;;;;;64.18;32.55;;;;;;;6.58;100.00;98988.34;5057217;28;20021;-73
2024/03/10 00:20:50;;;;;;;53.50;23.33;;;;;;;6.60;100.00;98990.84;5040533;28;20451;-73
2024/03/10 00:23:15;;;;;;;47.65;27.27;;;;;;;6.58;100.00;98991.03;5040852;28;20533;-76
2024/03/10 00:25:43;;;;;;;55.92;27.10;;;;;;;6.58;100.00;98995.56;5056949;28;20055;-74
2024/03/10 00:28:08;;;;;;;54.03;26.77;;;;;;;6.56;100.00;98994.91;5040924;28;20024;-73
2024/03/10 00:30:34;;;;;;;52.50;23.42;;;;;;;6.56;100.00;99003.78;5040696;28;20032;-75
2024/03/10 00:33:00;;;;;;;64.10;27.35;;;;;;;6.55;100.00;99001.28;5057225;28;20042;-75
2024/03/10 00:35:26;;;;;;;65.53;30.85;;;;;;;6.55;100.00;99007.44;5056889;28;20375;-75
2024/03/10 00:37:51;;;;;;;49.22;24.30;;;;;;;6.56;100.00;99009.13;5040536;28;20063;-75
2024/03/10 00:40:17;;;;;;;58.15;25.58;;;;;;;6.59;100.00;99015.91;5040407;28;20036;-73
2024/03/10 00:42:43;;;;;;;44.58;21.42;;;;;;;6.60;100.00;99021.03;5040999;28;20028;-75
2024/03/10 00:45:09;;;;;;;54.60;22.45;;;;;;;6.63;100.00;99029.69;5024025;28;20523;-73
2024/03/10 00:47:37;;;;;;;60.00;30.85;;;;;;;6.67;100.00;99022.94;5040308;28;20119;-73
2024/03/10 00:50:04;;;;;;;51.25;24.00;;;;;;;6.70;100.00;99026.06;5040612;28;20523;-75
2024/03/10 00:52:30;;;;;;;55.72;26.85;;;;;;;6.68;100.00;99024.59;5056921;28;20489;-76
2024/03/10 00:54:56;;;;;;;46.95;22.42;;;;;;;6.71;100.00;99032.22;5056784;28;20036;-75
2024/03/10 00:57:22;;;;;;;55.58;26.02;;;;;;;6.71;100.00;99037.56;5040303;28;20475;-75
2024/03/10 00:59:47;;;;;;;50.72;24.15;;;;;;;6.72;100.00;99039.22;5040126;28;20031;-75
2024/03/10 01:02:13;;;;;;;55.03;25.48;;;;;;;6.72;100.00;99045.41;5040222;28;20462;-73
2024/03/10 01:04:39;;;;;;;53.13;26.25;;;;;;;6.72;100.00;99044.56;5040098;28;20397;-75
2024/03/10 01:07:04;;;;;;;46.70;18.23;;;;;;;6.72;100.00;99039.22;5056562;28;20029;-75
2024/03/10 01:09:30;;;;;;;47.05;21.33;;;;;;;6.74;100.00;99045.19;5040615;28;20046;-73
2024/03/10 01:11:56;;;;;;;55.60;24.60;;;;;;;6.74;100.00;99042.53;5039956;28;20366;-75
2024/03/10 01:14:21;;;;;;;60.55;28.33;;;;;;;6.74;100.00;99047.84;5056478;28;20119;-73
2024/03/10 01:16:48;;;;;;;58.55;26.17;;;;;;;6.74;100.00;99053.19;5039923;28;20055;-75
2024/03/10 01:19:14;;;;;;;42.47;20.23;;;;;;;6.74;100.00;99051.34;5039852;28;20130;-75
2024/03/10 01:21:39;;;;;;;53.97;23.80;;;;;;;6.74;100.00;99053.19;5039591;28;20150;-75
2024/03/10 01:24:05;;;;;;;53.10;31.33;;;;;;;6.73;100.00;99051.56;5039773;28;20036;-75
2024/03/10 01:26:31;;;;;;;47.63;23.00;;;;;;;6.74;100.00;99059.38;5040514;28;20037;-74
2024/03/10 01:28:56;;;;;;;59.88;29.63;;;;;;;6.73;100.00;99051.56;5039732;28;20028;-75
2024/03/10 01:31:22;;;;;;;51.60;20.67;;;;;;;6.75;100.00;99060.22;5039639;28;20036;-75
2024/03/10 01:33:48;;;;;;;51.35;23.33;;;;;;;6.73;100.00;99060.41;5055715;28;20028;-75
2024/03/10 01:36:14;;;;;;;56.78;26.05;;;;;;;6.72;100.00;99063.25;5038831;28;20044;-75
2024/03/10 01:38:40;;;;;;;50.40;21.65;;;;;;;6.74;100.00;99061.22;5023237;28;20067;-75
2024/03/10 01:41:07;;;;;;;56.50;26.15;;;;;;;6.73;100.00;99065.72;5039196;28;20055;-75
2024/03/10 01:43:33;;;;;;;53.45;26.05;;;;;;;6.73;100.00;99064.91;5039542;28;20024;-75
2024/03/10 01:46:06;;;;;;;53.90;25.88;;;;;;;6.73;100.00;99073.75;5055984;28;20107;-75
2024/03/10 01:48:37;;;;;;;52.15;24.98;;;;;;;6.73;100.00;99073.75;5056168;28;20129;-75
2024/03/10 01:51:10;;;;;;;48.30;23.50;;;;;;;6.72;100.00;99068.59;5023345;28;20052;-75
2024/03/10 01:53:37;;;;;;;33.38;16.67;;;;;;;6.72;100.00;99065.91;5039308;28;20028;-74
2024/03/10 01:56:06;;;;;;;49.47;24.75;;;;;;;6.71;100.00;99070.44;5039198;28;20036;-75
2024/03/10 01:58:32;;;;;;;45.00;23.35;;;;;;;6.71;100.00;99070.44;5039662;28;20024;-74
2024/03/10 02:01:02;;;;;;;51.63;29.40;;;;;;;6.71;100.00;99070.44;5072387;28;20031;-74
2024/03/10 02:03:28;;;;;;;46.45;22.85;;;;;;;6.71;100.00;99069.63;5056291;28;20020;-74
2024/03/10 02:05:54;;;;;;;46.90;19.98;;;;;;;6.70;100.00;99073.31;5055715;28;20031;-75
2024/03/10 02:08:20;;;;;;;40.10;21.67;;;;;;;6.68;100.00;99070.81;5039334;28;20033;-75
2024/03/10 02:10:48;;;;;;;38.53;17.58;;;;;;;6.66;100.00;99062.16;5039207;28;20447;-74
2024/03/10 02:13:17;;;;;;;51.08;28.13;;;;;;;6.67;100.00;99063.00;5056177;28;20024;-74
2024/03/10 02:15:43;;;;;;;46.38;24.63;;;;;;;6.70;100.00;99065.31;5038931;28;20385;-74
2024/03/10 02:18:10;;;;;;;48.30;23.33;;;;;;;6.72;100.00;99055.22;5055310;28;20047;-75
2024/03/10 02:20:38;;;;;;;44.65;24.38;;;;;;;6.74;100.00;99062.03;5039267;28;20043;-74
2024/03/10 02:23:04;;;;;;;42.92;23.60;;;;;;;6.76;100.00;99065.34;5055660;28;20032;-74
2024/03/10 02:25:36;;;;;;;46.88;23.17;;;;;;;6.77;100.00;99060.81;5055800;28;20032;-74
2024/03/10 02:28:20;;;;;;;41.20;23.50;;;;;;;6.76;100.00;99053.84;5039608;28;20037;-74
2024/03/10 02:30:55;;;;;;;41.22;21.27;;;;;;;6.73;100.00;99055.06;5042099;28;20390;-74
2024/03/10 02:47:13;;;;;;;32.40;16.40;;;;;;;6.67;100.00;99044.31;5058496;28;20029;-74
2024/03/10 02:49:39;;;;;;;42.20;22.05;;;;;;;6.67;100.00;99046.97;5043350;28;20029;-74
2024/03/10 02:52:05;;;;;;;45.80;20.85;;;;;;;6.66;100.00;99048.00;5042600;28;20090;-74
2024/03/10 02:54:31;;;;;;;42.45;19.88;;;;;;;6.64;100.00;99048.19;5042528;28;20086;-74
2024/03/10 02:56:57;;;;;;;36.88;17.50;;;;;;;6.64;100.00;99050.03;5042431;28;20040;-75
2024/03/10 02:59:24;;;;;;;37.65;18.50;;;;;;;6.64;100.00;99053.53;5042408;28;20024;-74
2024/03/10 03:01:50;;;;;;;54.60;23.55;;;;;;;6.61;100.00;99051.25;5058702;28;20023;-74
2024/03/10 03:04:16;;;;;;;45.88;24.10;;;;;;;6.62;100.00;99062.78;5058973;28;20032;-74
2024/03/10 03:06:42;;;;;;;38.10;19.48;;;;;;;6.60;100.00;99055.75;5075724;28;20409;-74
2024/03/10 03:09:08;;;;;;;47.90;29.88;;;;;;;6.63;100.00;99051.06;5025861;28;20028;-74
2024/03/10 03:11:34;;;;;;;35.63;24.17;;;;;;;6.63;100.00;99041.19;5042238;28;20081;-74
2024/03/10 03:14:03;;;;;;;38.33;20.92;;;;;;;6.62;100.00;99041.41;5042215;28;20032;-74
2024/03/10 03:16:29;;;;;;;44.92;22.60;;;;;;;6.60;100.00;99047.75;5043451;28;20032;-74
2024/03/10 03:18:55;;;;;;;36.33;21.67;;;;;;;6.62;100.00;99038.75;5042084;28;20040;-74
2024/03/10 03:21:20;;;;;;;47.10;28.15;;;;;;;6.57;100.00;99036.63;5075019;28;20087;-74
2024/03/10 03:23:46;;;;;;;49.33;29.75;;;;;;;6.57;100.00;99042.78;5041932;28;20040;-74
2024/03/10 03:26:14;;;;;;;44.08;25.30;;;;;;;6.56;100.00;99034.97;5041988;28;20043;-74
2024/03/10 03:28:42;;;;;;;38.58;20.05;;;;;;;6.56;100.00;99040.31;5059000;28;20032;-74
2024/03/10 03:31:07;;;;;;;40.55;26.02;;;;;;;6.53;100.00;99030.84;5058454;28;20035;-74
2024/03/10 03:33:33;;;;;;;35.13;19.17;;;;;;;6.52;100.00;99039.06;5041477;28;20032;-74
2024/03/10 03:36:00;;;;;;;37.38;19.77;;;;;;;6.50;100.00;99036.56;5057877;28;20082;-74
2024/03/10 03:38:26;;;;;;;44.40;26.52;;;;;;;6.50;100.00;99035.75;5042539;28;20459;-74
2024/03/10 03:40:52;;;;;;;41.70;24.45;;;;;;;6.49;100.00;99037.59;5074720;28;20020;-74
2024/03/10 03:43:17;;;;;;;45.65;24.58;;;;;;;6.50;100.00;99049.09;5057776;28;20024;-74
2024/03/10 03:45:43;;;;;;;46.53;28.30;;;;;;;6.50;100.00;99049.91;5058208;28;20374;-74
2024/03/10 03:48:09;;;;;;;45.55;25.95;;;;;;;6.52;100.00;99055.06;5057996;28;20370;-74
2024/03/10 03:50:35;;;;;;;42.95;20.73;;;;;;;6.48;100.00;99043.94;5057826;28;20458;-74
2024/03/10 03:53:01;;;;;;;41.55;20.80;;;;;;;6.49;100.00;99052.78;5041925;28;20060;-75
2024/03/10 03:55:27;;;;;;;40.22;23.15;;;;;;;6.47;100.00;99055.63;5041409;28;20037;-75
2024/03/10 03:57:53;;;;;;;44.85;24.58;;;;;;;6.46;100.00;99062.00;5041264;28;20097;-74
2024/03/10 04:00:19;;;;;;;40.78;23.60;;;;;;;6.45;100.00;99063.00;5040301;28;20024;-74
2024/03/10 04:02:46;;;;;;;46.95;25.88;;;;;;;6.48;100.00;99062.63;5057840;28;20078;-74
2024/03/10 04:05:16;;;;;;;42.97;25.33;;;;;;;6.49;100.00;99066.97;5041145;28;20056;-74
2024/03/10 04:07:42;;;;;;;32.72;15.50;;;;;;;6.46;100.00;99067.34;5041243;28;20024;-75
2024/03/10 04:10:09;;;;;;;38.75;20.23;;;;;;;6.45;100.00;99062.19;5041127;28;20035;-74
2024/03/10 04:12:36;;;;;;;38.33;17.23;;;;;;;6.46;100.00;99067.34;5057949;28;20028;-74
2024/03/10 04:15:02;;;;;;;47.28;26.08;;;;;;;6.42;100.00;99054.56;5041037;28;20036;-74
2024/03/10 04:17:28;;;;;;;42.05;22.35;;;;;;;6.44;100.00;99069.38;5074023;28;20021;-74
2024/03/10 04:19:54;;;;;;;34.67;18.80;;;;;;;6.46;100.00;99074.53;5057265;28;20348;-74
2024/03/10 04:22:20;;;;;;;46.65;27.45;;;;;;;6.43;100.00;99074.88;5041372;28;20455;-74
2024/03/10 04:24:48;;;;;;;41.50;21.85;;;;;;;6.43;100.00;99067.72;5040881;28;20028;-74
2024/03/10 04:27:14;;;;;;;34.67;18.60;;;;;;;6.42;100.00;99070.59;5041030;28;20024;-74
2024/03/10 04:29:41;;;;;;;36.63;16.63;;;;;;;6.42;100.00;99059.91;5040669;28;20043;-74
2024/03/10 04:32:07;;;;;;;34.20;16.45;;;;;;;6.41;100.00;99075.09;5073662;28;20028;-75
2024/03/10 04:34:36;;;;;;;30.88;17.95;;;;;;;6.41;100.00;99064.41;5041170;28;20039;-74
2024/03/10 04:37:02;;;;;;;32.72;17.02;;;;;;;6.39;100.00;99074.47;5057262;28;20028;-74
2024/03/10 04:39:28;;;;;;;31.00;17.17;;;;;;;6.37;100.00;99071.13;5073834;28;20047;-74
2024/03/10 04:41:54;;;;;;;41.67;24.05;;;;;;;6.33;100.00;99065.38;5040384;28;20029;-74
2024/03/10 04:44:20;;;;;;;36.40;20.35;;;;;;;6.31;100.00;99064.72;5040495;28;20032;-74
2024/03/10 04:46:46;;;;;;;35.42;16.90;;;;;;;6.29;100.00;99068.59;5073491;28;20362;-74
2024/03/10 04:49:12;;;;;;;34.72;16.13;;;;;;;6.29;100.00;99073.94;5040363;28;20535;-74
2024/03/10 04:51:38;;;;;;;30.90;15.18;;;;;;;6.28;100.00;99074.97;5040361;28;20115;-74
2024/03/10 04:54:05;;;;;;;32.50;17.50;;;;;;;6.28;100.00;99070.44;5040137;28;20031;-74
2024/03/10 04:56:35;;;;;;;22.65;13.98;;;;;;;6.29;100.00;99076.59;5040302;28;20029;-74
2024/03/10 04:59:02;;;;;;;28.85;16.73;;;;;;;6.28;100.00;99072.28;5057121;28;20028;-74
2024/03/10 05:01:28;;;;;;;39.28;19.35;;;;;;;6.26;100.00;99082.31;5056384;28;20028;-74
2024/03/10 05:03:54;;;;;;;34.53;16.35;;;;;;;6.22;100.00;99081.03;5040076;28;20398;-74
2024/03/10 05:06:19;;;;;;;28.45;17.15;;;;;;;6.22;100.00;99083.69;5040634;28;20047;-74
2024/03/10 05:08:46;;;;;;;37.17;19.45;;;;;;;6.24;100.00;99076.34;5040162;28;20428;-74
2024/03/10 05:11:14;;;;;;;36.20;19.20;;;;;;;6.25;100.00;99088.69;5039989;28;20074;-74
2024/03/10 05:13:40;;;;;;;26.60;13.63;;;;;;;6.25;100.00;99091.34;5056543;28;20036;-74
2024/03/10 05:16:06;;;;;;;31.90;17.48;;;;;;;6.24;100.00;99093.19;5039891;28;20077;-75
2024/03/10 05:18:33;;;;;;;31.08;16.10;;;;;;;6.22;100.00;99092.56;5056589;28;20031;-75
2024/03/10 05:20:59;;;;;;;37.00;16.85;;;;;;;6.21;100.00;99092.75;5040056;28;20037;-74
2024/03/10 05:23:26;;;;;;;30.30;13.32;;;;;;;6.22;100.00;99091.72;5040348;28;20409;-74
2024/03/10 05:25:52;;;;;;;37.88;16.77;;;;;;;6.23;100.00;99098.72;5039692;28;20024;-74
2024/03/10 05:28:18;;;;;;;30.48;15.48;;;;;;;6.22;100.00;99095.22;5039467;28;20116;-74
2024/03/10 05:30:45;;;;;;;33.70;16.42;;;;;;;6.24;100.00;99097.69;5056390;28;20067;-75
2024/03/10 05:33:12;;;;;;;32.35;15.25;;;;;;;6.25;100.00;99107.38;5039823;28;20027;-75
2024/03/10 05:35:37;;;;;;;32.15;13.68;;;;;;;6.22;100.00;99107.72;5056148;28;20032;-74
2024/03/10 05:38:04;;;;;;;32.85;17.92;;;;;;;6.21;100.00;99103.41;5039627;28;20028;-75
2024/03/10 05:40:29;;;;;;;24.90;12.32;;;;;;;6.23;100.00;99106.72;5055953;28;20024;-75
2024/03/10 05:42:55;;;;;;;33.75;18.65;;;;;;;6.24;100.00;99111.88;5039771;28;20047;-74
2024/03/10 05:45:21;;;;;;;31.83;15.00;;;;;;;6.26;100.00;99115.19;5039456;28;20405;-74
2024/03/10 05:47:49;;;;;;;13.15;7.82;;;;;;;6.27;100.00;99113.31;5056586;28;20035;-74
2024/03/10 05:50:17;;;;;;;30.20;15.18;;;;;;;6.28;100.00;99123.00;5056514;28;20145;-74
2024/03/10 05:52:46;;;;;;;31.20;16.02;;;;;;;6.27;100.00;99114.19;5039313;28;20033;-74
2024/03/10 05:55:12;;;;;;;30.77;16.58;;;;;;;6.29;100.00;99116.66;5039512;28;20035;-74
2024/03/10 05:57:41;;;;;;;31.50;15.07;;;;;;;6.26;100.00;99120.50;5039400;28;20037;-74
2024/03/10 06:00:13;;;;;;;34.33;17.08;;;;;;;6.27;100.00;99122.19;5039185;28;20024;-74
2024/03/10 06:02:46;;;;;;;23.30;11.23;;;;;;;6.26;100.00;99127.69;5040280;28;20489;-74
2024/03/10 06:05:13;;;;;;;30.17;15.88;;;;;;;6.24;100.00;99127.88;5072428;28;20119;-74
2024/03/10 06:07:40;;;;;;;26.75;13.27;;;;;;;6.25;100.00;99144.75;5055530;28;20068;-74
2024/03/10 06:10:06;;;;;;;31.85;17.30;;;;;;;6.22;100.00;99134.41;5055387;28;20031;-74
2024/03/10 06:12:32;;;;;;;30.25;14.23;;;;;;;6.22;100.00;99145.09;5039300;28;20477;-74
2024/03/10 06:14:59;;;;;;;31.40;14.27;;;;;;;6.20;100.00;99145.28;5055826;28;20111;-74
2024/03/10 06:17:31;;;;;;;31.63;16.10;;;;;;;6.20;100.00;99141.81;5055716;28;20033;-74
2024/03/10 06:25:29;;;;;;;17.30;8.15;;;;;;;6.16;100.00;99158.16;5062213;28;20028;-74
2024/03/10 06:27:58;;;;;;;30.77;14.85;;;;;;;6.15;100.00;99156.53;5076145;28;20028;-75
2024/03/10 06:30:25;;;;;;;24.77;9.25;;;;;;;6.15;100.00;99153.84;5043328;28;20454;-75
2024/03/10 06:32:51;;;;;;;26.67;14.20;;;;;;;6.14;100.00;99152.22;5042976;28;20048;-74
2024/03/10 06:35:17;;;;;;;33.28;17.77;;;;;;;6.14;100.00;99156.72;5059033;28;20021;-75
2024/03/10 06:37:47;;;;;;;29.85;15.13;;;;;;;6.15;100.00;99159.19;5059449;28;20090;-74
2024/03/10 06:40:13;;;;;;;31.27;15.13;;;;;;;6.14;100.00;99159.41;5043397;28;20040;-75
2024/03/10 06:42:39;;;;;;;29.30;13.13;;;;;;;6.12;100.00;99159.56;5042733;28;20408;-74
2024/03/10 06:45:05;;;;;;;27.75;14.70;;;;;;;6.13;100.00;99163.06;5042642;28;20039;-74
2024/03/10 06:47:31;;;;;;;30.45;14.25;;;;;;;6.07;100.00;99163.81;5075475;28;20026;-75
2024/03/10 06:49:57;;;;;;;36.53;16.00;;;;;;;6.11;100.00;99173.09;5026208;28;20153;-74
2024/03/10 06:52:23;;;;;;;33.85;17.05;;;;;;;6.11;100.00;99173.09;5042632;28;20427;-74
2024/03/10 06:54:48;;;;;;;29.20;13.93;;;;;;;6.10;100.00;99174.09;5075590;28;20523;-74
2024/03/10 06:57:14;;;;;;;34.25;16.73;;;;;;;6.09;100.00;99177.81;5042490;28;20028;-74
2024/03/10 06:59:41;;;;;;;33.42;16.80;;;;;;;6.05;100.00;99185.34;5042113;28;20033;-75
2024/03/10 07:02:11;;;;;;;36.10;17.23;;;;;;;6.03;100.00;99183.84;5058554;28;20371;-74
2024/03/10 07:04:38;;;;;;;28.58;14.90;;;;;;;5.99;100.00;99179.91;5075499;28;20025;-75
2024/03/10 07:07:05;;;;;;;44.25;21.25;;;;;;;5.99;100.00;99172.75;5058670;28;20028;-75
2024/03/10 07:09:31;;;;;;;30.50;13.38;;;;;;;5.96;100.00;99183.78;5042212;28;20089;-74
2024/03/10 07:11:57;;;;;;;40.47;19.30;;;;;;;5.94;100.00;99180.47;5042223;28;20024;-74
2024/03/10 07:14:23;;;;;;;43.92;19.40;;;;;;;5.91;100.00;99183.47;5058914;28;20043;-75
2024/03/10 07:16:49;;;;;;;31.52;14.15;;;;;;;5.89;100.00;99188.97;5041821;28;20024;-74
2024/03/10 07:19:18;;;;;;;40.28;18.77;;;;;;;5.90;100.00;99196.00;5042076;28;20138;-74
2024/03/10 07:21:44;;;;;;;37.33;17.20;;;;;;;5.92;100.00;99188.59;5042158;28;20032;-75
2024/03/10 07:24:10;;;;;;;37.20;15.88;;;;;;;5.92;100.00;99190.47;5042007;28;20471;-74
2024/03/10 07:26:36;;;;;;;35.17;16.80;;;;;;;5.92;100.00;99195.78;5041922;28;20032;-74
2024/03/10 07:29:02;;;;;;;34.35;15.98;;;;;;;5.91;100.00;99199.47;5058904;28;20111;-75
2024/03/10 07:31:28;;;;;;;34.83;16.70;;;;;;;5.90;100.00;99205.81;5041805;28;20059;-74
2024/03/10 07:33:54;;;;;;;44.20;24.33;;;;;;;5.91;100.00;99202.16;5074330;28;20025;-74
2024/03/10 07:36:22;;;;;;;35.15;13.60;;;;;;;5.93;100.00;99208.13;5057947;28;20040;-74
2024/03/10 07:38:50;;;;;;;42.83;20.23;;;;;;;5.89;100.00;99204.16;5041942;28;20039;-74
2024/03/10 07:41:15;;;;;;;18.10;10.60;;;;;;;5.94;100.00;99204.47;5025139;28;20067;-74
2024/03/10 07:43:42;;;;;;;41.78;18.48;;;;;;;5.93;100.00;99203.66;5041463;28;20067;-75
2024/03/10 07:46:07;;;;;;;46.40;25.88;;;;;;;5.95;100.00;99211.47;5041327;28;20118;-75
2024/03/10 07:48:33;;;;;;;23.80;11.25;;;;;;;5.94;100.00;99213.31;5041785;28;20075;-75
2024/03/10 07:50:59;;;;;;;32.65;15.27;;;;;;;5.94;100.00;99207.97;5041505;28;20470;-75
2024/03/10 07:53:24;;;;;;;34.33;15.13;;;;;;;5.94;100.00;99210.63;5041487;28;20485;-75
2024/03/10 07:55:50;;;;;;;46.10;18.42;;;;;;;5.96;100.00;99221.13;5041410;28;20040;-75
2024/03/10 07:58:16;;;;;;;32.88;17.02;;;;;;;5.98;100.00;99218.25;5041265;28;20048;-74
2024/03/10 08:00:42;;;;;;;48.40;20.70;;;;;;;5.99;100.00;99215.44;5057639;28;20032;-74
2024/03/10 08:03:09;;;;;;;38.65;15.32;;;;;;;6.00;100.00;99226.91;5074354;28;20024;-75
2024/03/10 08:05:35;;;;;;;47.65;22.35;;;;;;;5.99;100.00;99219.94;5041235;28;20170;-75
2024/03/10 08:08:01;;;;;;;35.58;17.13;;;;;;;5.96;100.00;99225.66;5040861;28;20344;-75
2024/03/10 08:10:27;;;;;;;43.45;18.52;;;;;;;5.94;100.00;99228.50;5041155;28;20033;-75
2024/03/10 08:12:55;;;;;;;36.83;18.35;;;;;;;5.95;100.00;99224.78;5057631;28;20035;-75
2024/03/10 08:15:21;;;;;;;41.17;20.45;;;;;;;5.92;100.00;99233.13;5025250;28;20121;-75
2024/03/10 08:17:47;;;;;;;28.23;12.80;;;;;;;5.96;100.00;99234.47;5057590;28;20098;-75
2024/03/10 08:20:13;;;;;;;42.80;18.23;;;;;;;6.01;100.00;99244.59;5040733;28;20446;-75
2024/03/10 08:22:41;;;;;;;20.33;12.35;;;;;;;6.10;100.00;99246.16;5058180;28;20042;-75
2024/03/10 08:25:07;;;;;;;40.78;18.75;;;;;;;6.20;100.00;99245.88;5073615;28;20044;-75
2024/03/10 08:27:33;;;;;;;30.60;16.38;;;;;;;6.23;100.00;99240.19;5040759;28;20028;-74
2024/03/10 08:29:59;;;;;;;34.17;16.08;;;;;;;6.22;100.00;99252.69;5057405;28;20058;-74
2024/03/10 08:32:26;;;;;;;47.30;22.30;;;;;;;6.18;100.00;99254.06;5040621;28;20040;-75
2024/03/10 08:34:53;;;;;;;35.83;17.00;;;;;;;6.19;100.00;99253.03;5057317;28;20025;-75
2024/03/10 08:37:20;;;;;;;33.22;16.10;;;;;;;6.18;100.00;99255.91;5056794;28;20035;-75
2024/03/10 08:39:50;;;;;;;48.53;21.25;;;;;;;6.15;100.00;99247.25;5040416;28;20123;-75
2024/03/10 08:42:16;;;;;;;48.40;22.15;;;;;;;6.08;100.00;99262.34;5056911;28;20116;-75
2024/03/10 08:44:42;;;;;;;44.25;22.98;;;;;;;6.05;100.00;99260.03;5056998;28;20068;-74
2024/03/10 08:47:08;;;;;;;28.63;12.85;;;;;;;6.07;100.00;99255.34;5056176;28;20020;-75
2024/03/10 08:49:34;;;;;;;32.28;14.50;;;;;;;6.05;100.00;99259.22;5040323;28;20035;-74
2024/03/10 08:52:01;;;;;;;44.75;18.23;;;;;;;6.01;100.00;99257.94;5040261;28;20032;-74
2024/03/10 08:54:29;;;;;;;50.35;21.90;;;;;;;5.96;100.00;99271.81;5072920;28;20029;-74
2024/03/10 08:56:56;;;;;;;44.50;20.25;;;;;;;5.91;100.00;99266.19;5056897;28;20028;-74
2024/03/10 08:59:21;;;;;;;23.38;11.20;;;;;;;5.90;100.00;99267.16;5057046;28;20039;-74
2024/03/10 09:01:47;;;;;;;44.08;21.83;;;;;;;5.92;100.00;99267.81;5040351;28;20021;-74
2024/03/10 09:04:14;;;;;;;23.17;14.82;;;;;;;5.95;100.00;99270.16;5057194;28;20443;-75
2024/03/10 09:06:39;;;;;;;51.42;26.33;;;;;;;5.94;100.00;99265.84;5039766;28;20123;-75
2024/03/10 09:09:05;;;;;;;45.00;21.15;;;;;;;5.96;100.00;99273.66;5040052;28;20123;-74
2024/03/10 09:11:31;;;;;;;36.15;12.93;;;;;;;5.96;100.00;99271.00;5040061;28;20423;-74
2024/03/10 09:14:00;;;;;;;37.90;17.20;;;;;;;5.93;100.00;99283.69;5039792;28;20028;-75
2024/03/10 09:16:26;;;;;;;39.90;20.20;;;;;;;5.89;100.00;99271.69;5056774;28;20041;-74
2024/03/10 09:18:52;;;;;;;30.17;17.27;;;;;;;5.90;100.00;99278.69;5040168;28;20020;-75
2024/03/10 09:21:18;;;;;;;34.38;16.58;;;;;;;5.89;100.00;99279.69;5039219;28;20367;-74
2024/03/10 09:23:44;;;;;;;30.52;16.00;;;;;;;5.88;100.00;99278.03;5039613;28;20078;-75
2024/03/10 09:26:13;;;;;;;18.10;7.93;;;;;;;5.91;100.00;99276.84;5040481;28;20118;-74
2024/03/10 09:28:44;;;;;;;25.67;13.13;;;;;;;5.95;100.00;99272.81;5039638;28;20092;-74
2024/03/10 09:31:14;;;;;;;31.92;15.85;;;;;;;5.96;100.00;99269.16;5072951;28;20029;-75
2024/03/10 09:33:46;;;;;;;37.05;20.80;;;;;;;5.98;100.00;99271.63;5038821;28;20072;-75
2024/03/10 09:36:12;;;;;;;25.98;15.30;;;;;;;5.99;100.00;99255.44;5055994;28;20395;-75
2024/03/10 09:38:37;;;;;;;37.83;18.50;;;;;;;6.10;100.00;99259.50;5056030;28;20051;-75
2024/03/10 09:41:05;;;;;;;32.22;18.48;;;;;;;6.21;100.00;99266.22;5039132;28;20033;-75
2024/03/10 09:43:37;;;;;;;35.33;19.20;;;;;;;6.25;100.00;99257.66;5040467;28;20486;-75
2024/03/10 09:46:04;;;;;;;35.78;15.90;;;;;;;6.34;100.00;99261.06;5023226;28;20037;-75
2024/03/10 09:48:32;;;;;;;33.58;16.17;;;;;;;6.50;100.00;99255.50;5056122;28;20501;-75
2024/03/10 09:50:58;;;;;;;34.22;17.45;;;;;;;6.66;100.00;99257.16;5055919;28;20110;-75
2024/03/10 09:53:25;;;;;;;15.90;9.93;;;;;;;6.79;100.00;99264.50;5055549;28;20067;-75
2024/03/10 09:55:52;;;;;;;40.17;20.13;;;;;;;6.94;100.00;99262.63;5056052;28;20040;-75
2024/03/10 09:58:29;;;;;;;43.47;18.80;;;;;;;6.88;100.00;99255.38;5038335;28;20107;-74
2024/03/10 10:00:56;;;;;;;37.97;18.70;;;;;;;6.90;100.00;99260.50;5039574;28;20036;-75
2024/03/10 10:03:24;;;;;;;37.70;19.95;;;;;;;7.00;100.00;99271.72;5055763;28;20032;-75
2024/03/10 10:06:02;;;;;;;21.55;13.65;;;;;;;7.04;100.00;99270.34;5055890;28;20397;-75
2024/03/10 10:08:29;;;;;;;36.80;19.55;;;;;;;7.00;100.00;99275.22;5055685;28;20028;-74
2024/03/10 10:10:58;;;;;;;34.80;18.00;;;;;;;6.91;100.00;99275.53;5055530;28;20135;-74
2024/03/10 10:13:27;;;;;;;18.63;9.40;;;;;;;6.93;100.00;99285.03;5039600;28;20445;-75
2024/03/10 10:15:53;;;;;;;40.50;21.58;;;;;;;6.88;100.00;99276.75;5039010;28;20040;-75
2024/03/10 10:18:23;;;;;;;24.55;12.82;;;;;;;6.91;100.00;99281.69;5039175;28;20040;-74
2024/03/10 10:20:53;;;;;;;34.72;18.17;;;;;;;6.79;100.00;99288.53;5072091;28;20033;-75
2024/03/10 10:23:23;;;;;;;40.13;17.45;;;;;;;6.81;100.00;99289.19;5055774;28;20040;-75
2024/03/10 10:26:05;;;;;;;26.48;13.27;;;;;;;6.76;100.00;99291.59;5072153;28;20040;-75
2024/03/10 10:28:34;;;;;;;39.05;21.67;;;;;;;6.70;100.00;99287.81;5055208;28;20072;-75
2024/03/10 10:31:13;;;;;;;21.13;11.00;;;;;;;6.72;100.00;99292.97;5072144;28;20032;-74
2024/03/10 10:33:39;;;;;;;23.70;10.98;;;;;;;6.75;100.00;99289.94;5055768;28;20067;-75
2024/03/10 10:36:08;;;;;;;35.10;16.73;;;;;;;6.87;100.00;99288.44;5038858;28;20043;-75
2024/03/10 10:38:38;;;;;;;28.80;13.48;;;;;;;6.92;100.00;99282.53;5071719;28;20029;-74
2024/03/10 10:41:05;;;;;;;37.00;19.95;;;;;;;6.93;100.00;99289.50;5071773;28;20021;-74
2024/03/10 10:43:37;;;;;;;22.55;11.38;;;;;;;6.92;100.00;99288.69;5071726;28;20029;-75
2024/03/10 10:46:14;;;;;;;36.22;16.63;;;;;;;6.90;100.00;99282.69;5039082;28;20035;-75
2024/03/10 10:48:40;;;;;;;29.85;14.63;;;;;;;6.90;100.00;99293.38;5072232;28;20029;-75
2024/03/10 10:51:06;;;;;;;39.38;18.38;;;;;;;6.83;100.00;99292.50;5022042;28;20448;-75
2024/03/10 10:53:41;;;;;;;38.40;19.73;;;;;;;6.78;100.00;99295.72;5039360;28;20029;-75
2024/03/10 10:56:08;;;;;;;28.90;16.73;;;;;;;6.67;100.00;99288.19;5038724;28;20036;-74
2024/03/10 10:58:34;;;;;;;31.25;14.55;;;;;;;6.75;100.00;99293.44;5071559;28;20104;-74
2024/03/10 11:01:05;;;;;;;36.38;16.90;;;;;;;6.92;100.00;99296.72;5038470;28;20039;-75
2024/03/10 11:03:36;;;;;;;29.92;13.10;;;;;;;7.13;100.00;99300.44;5056275;28;20032;-74
2024/03/10 11:06:01;;;;;;;15.43;8.40;;;;;;;7.31;100.00;99294.66;5055382;28;20116;-75
2024/03/10 11:08:31;;;;;;;36.50;18.35;;;;;;;7.56;100.00;99301.25;5071810;28;20104;-75
2024/03/10 11:10:57;;;;;;;32.33;18.95;;;;;;;7.86;100.00;99298.44;5042133;28;20479;-75
2024/03/10 11:13:23;;;;;;;25.50;14.77;;;;;;;7.74;100.00;99287.44;5058461;28;20041;-75
2024/03/10 11:16:05;;;;;;;26.98;14.43;;;;;;;7.74;100.00;99298.13;5058688;28;20056;-74
2024/03/10 11:18:32;;;;;;;18.52;11.57;;;;;;;7.79;100.00;99303.72;5075157;28;20070;-75
2024/03/10 11:21:00;;;;;;;28.15;15.93;;;;;;;7.88;100.00;99301.75;5074338;28;20036;-74
2024/03/10 11:23:46;;;;;;;23.67;14.35;;;;;;;7.88;100.00;99309.75;5057427;28;20115;-74
2024/03/10 11:26:12;;;;;;;34.92;19.42;;;;;;;7.66;100.00;99307.13;5058224;28;20029;-73
2024/03/10 11:29:21;;;;;;;26.17;14.35;;;;;;;7.75;100.00;99309.66;5041840;28;20151;-73
2024/03/10 11:31:47;;;;;;;26.70;15.38;;;;;;;7.93;100.00;99305.47;5025446;28;20048;-73
2024/03/10 11:34:13;;;;;;;31.65;15.93;;;;;;;8.26;100.00;99306.75;5042339;28;20036;-73
2024/03/10 11:36:40;;;;;;;23.42;10.73;;;;;;;8.77;100.00;99296.53;5058259;28;20041;-73